sensor_id;sensor_type;location;lat;lon;timestamp;temperature;humidity
35680;DHT22;21803;53.586;10.040;2023-04-23T04:01:19;20.30;45.70
35680;DHT22;21803;53.586;10.040;2023-04-23T04:03:45;21.90;46.50
35680;DHT22;21803;53.586;10.040;2023-04-23T04:06:10;20.30;45.70
35680;DHT22;21803;53.586;10.040;2023-04-23T04:08:36;20.30;45.60
35680;DHT22;21803;53.586;10.040;2023-04-23T04:11:01;20.30;45.60
35680;DHT22;21803;53.586;10.040;2023-04-23T04:13:27;20.30;45.60
35680;DHT22;21803;53.586;10.040;2023-04-23T04:15:52;20.30;45.60
35680;DHT22;21803;53.586;10.040;2023-04-23T04:18:19;20.30;45.60
35680;DHT22;21803;53.586;10.040;2023-04-23T04:20:45;20.30;45.60
35680;DHT22;21803;53.586;10.040;2023-04-23T04:23:10;20.30;45.60
35680;DHT22;21803;53.586;10.040;2023-04-23T04:25:36;20.30;45.50
35680;DHT22;21803;53.586;10.040;2023-04-23T04:28:04;20.30;45.60
35680;DHT22;21803;53.586;10.040;2023-04-23T04:30:32;20.30;45.50
35680;DHT22;21803;53.586;10.040;2023-04-23T04:32:58;20.40;45.60
35680;DHT22;21803;53.586;10.040;2023-04-23T04:35:24;20.30;45.50
35680;DHT22;21803;53.586;10.040;2023-04-23T04:37:50;20.30;45.50
35680;DHT22;21803;53.586;10.040;2023-04-23T04:40:18;20.30;45.60
35680;DHT22;21803;53.586;10.040;2023-04-23T04:42:44;20.30;45.50
35680;DHT22;21803;53.586;10.040;2023-04-23T04:45:10;20.30;45.60
35680;DHT22;21803;53.586;10.040;2023-04-23T04:47:36;20.30;45.50
35680;DHT22;21803;53.586;10.040;2023-04-23T04:50:02;20.30;45.50
35680;DHT22;21803;53.586;10.040;2023-04-23T04:52:28;20.30;45.50
35680;DHT22;21803;53.586;10.040;2023-04-23T04:54:53;20.30;45.50
35680;DHT22;21803;53.586;10.040;2023-04-23T04:57:19;20.30;45.50
35680;DHT22;21803;53.586;10.040;2023-04-23T04:59:47;20.20;45.50
35680;DHT22;21803;53.586;10.040;2023-04-23T05:02:13;20.30;45.50
35680;DHT22;21803;53.586;10.040;2023-04-23T05:04:38;20.30;45.50
35680;DHT22;21803;53.586;10.040;2023-04-23T05:07:04;20.30;45.50
35680;DHT22;21803;53.586;10.040;2023-04-23T05:09:30;20.30;45.50
35680;DHT22;21803;53.586;10.040;2023-04-23T05:11:55;20.30;45.50
35680;DHT22;21803;53.586;10.040;2023-04-23T05:14:22;20.30;45.50
35680;DHT22;21803;53.586;10.040;2023-04-23T05:16:47;20.30;45.50
35680;DHT22;21803;53.586;10.040;2023-04-23T05:19:13;20.30;45.50
35680;DHT22;21803;53.586;10.040;2023-04-23T05:21:38;20.30;45.50
35680;DHT22;21803;53.586;10.040;2023-04-23T05:24:04;20.30;45.50
35680;DHT22;21803;53.586;10.040;2023-04-23T05:26:29;20.30;45.50
35680;DHT22;21803;53.586;10.040;2023-04-23T05:28:55;20.30;45.50
35680;DHT22;21803;53.586;10.040;2023-04-23T05:31:21;20.30;45.50
35680;DHT22;21803;53.586;10.040;2023-04-23T05:33:46;20.30;45.50
35680;DHT22;21803;53.586;10.040;2023-04-23T05:36:12;20.30;45.50
35680;DHT22;21803;53.586;10.040;2023-04-23T05:38:37;20.30;45.40
35680;DHT22;21803;53.586;10.040;2023-04-23T05:41:03;20.30;45.50
35680;DHT22;21803;53.586;10.040;2023-04-23T05:43:29;20.30;45.50
35680;DHT22;21803;53.586;10.040;2023-04-23T05:45:54;20.30;45.50
35680;DHT22;21803;53.586;10.040;2023-04-23T05:48:20;20.30;45.40
35680;DHT22;21803;53.586;10.040;2023-04-23T05:50:45;20.30;45.40
35680;DHT22;21803;53.586;10.040;2023-04-23T05:53:13;20.30;45.40
35680;DHT22;21803;53.586;10.040;2023-04-23T05:55:39;20.30;45.40
35680;DHT22;21803;53.586;10.040;2023-04-23T05:58:04;20.30;45.40
35680;DHT22;21803;53.586;10.040;2023-04-23T06:00:30;20.30;45.40
35680;DHT22;21803;53.586;10.040;2023-04-23T06:02:56;20.30;45.40
35680;DHT22;21803;53.586;10.040;2023-04-23T06:05:22;20.30;45.40
35680;DHT22;21803;53.586;10.040;2023-04-23T06:07:47;20.30;45.40
35680;DHT22;21803;53.586;10.040;2023-04-23T06:10:13;20.30;45.40
35680;DHT22;21803;53.586;10.040;2023-04-23T06:12:39;20.30;45.40
35680;DHT22;21803;53.586;10.040;2023-04-23T06:15:06;20.30;45.40
35680;DHT22;21803;53.586;10.040;2023-04-23T06:17:33;20.30;45.40
35680;DHT22;21803;53.586;10.040;2023-04-23T06:19:59;20.30;45.40
35680;DHT22;21803;53.586;10.040;2023-04-23T06:22:24;20.30;45.40
35680;DHT22;21803;53.586;10.040;2023-04-23T06:24:50;20.30;45.40
35680;DHT22;21803;53.586;10.040;2023-04-23T06:27:16;20.30;45.40
35680;DHT22;21803;53.586;10.040;2023-04-23T06:29:41;20.30;45.30
35680;DHT22;21803;53.586;10.040;2023-04-23T06:32:07;20.30;45.40
35680;DHT22;21803;53.586;10.040;2023-04-23T06:34:32;20.30;45.30
35680;DHT22;21803;53.586;10.040;2023-04-23T06:36:58;20.30;45.30
35680;DHT22;21803;53.586;10.040;2023-04-23T06:39:23;20.30;45.40
35680;DHT22;21803;53.586;10.040;2023-04-23T06:41:49;20.30;45.30
35680;DHT22;21803;53.586;10.040;2023-04-23T06:44:14;20.30;45.30
35680;DHT22;21803;53.586;10.040;2023-04-23T06:46:40;20.30;45.30
35680;DHT22;21803;53.586;10.040;2023-04-23T06:49:06;20.30;45.30
35680;DHT22;21803;53.586;10.040;2023-04-23T06:51:31;20.30;45.30
35680;DHT22;21803;53.586;10.040;2023-04-23T06:53:57;20.30;45.30
35680;DHT22;21803;53.586;10.040;2023-04-23T06:56:23;20.30;45.20
35680;DHT22;21803;53.586;10.040;2023-04-23T06:58:48;20.40;45.30
35680;DHT22;21803;53.586;10.040;2023-04-23T07:01:14;20.30;45.20
35680;DHT22;21803;53.586;10.040;2023-04-23T07:03:40;20.30;45.20
35680;DHT22;21803;53.586;10.040;2023-04-23T07:06:09;20.40;45.30
35680;DHT22;21803;53.586;10.040;2023-04-23T07:08:34;20.40;45.30
35680;DHT22;21803;53.586;10.040;2023-04-23T07:11:00;20.30;45.20
35680;DHT22;21803;53.586;10.040;2023-04-23T07:13:26;20.30;45.20
35680;DHT22;21803;53.586;10.040;2023-04-23T07:15:52;20.40;45.30
35680;DHT22;21803;53.586;10.040;2023-04-23T07:18:17;20.30;45.20
35680;DHT22;21803;53.586;10.040;2023-04-23T07:20:43;20.40;45.20
35680;DHT22;21803;53.586;10.040;2023-04-23T07:23:09;20.40;45.20
35680;DHT22;21803;53.586;10.040;2023-04-23T07:25:35;20.40;45.20
35680;DHT22;21803;53.586;10.040;2023-04-23T07:28:00;20.30;45.10
35680;DHT22;21803;53.586;10.040;2023-04-23T07:30:26;20.30;45.20
35680;DHT22;21803;53.586;10.040;2023-04-23T07:32:53;20.30;45.10
35680;DHT22;21803;53.586;10.040;2023-04-23T07:35:19;20.30;45.10
35680;DHT22;21803;53.586;10.040;2023-04-23T07:37:45;20.40;45.20
35680;DHT22;21803;53.586;10.040;2023-04-23T07:40:11;20.40;45.10
35680;DHT22;21803;53.586;10.040;2023-04-23T07:42:36;20.40;45.10
35680;DHT22;21803;53.586;10.040;2023-04-23T07:45:02;20.40;45.10
35680;DHT22;21803;53.586;10.040;2023-04-23T07:47:28;20.40;45.10
35680;DHT22;21803;53.586;10.040;2023-04-23T07:49:54;20.40;45.10
35680;DHT22;21803;53.586;10.040;2023-04-23T07:52:19;20.40;45.10
35680;DHT22;21803;53.586;10.040;2023-04-23T07:54:45;20.40;45.10
35680;DHT22;21803;53.586;10.040;2023-04-23T07:57:11;20.40;45.00
35680;DHT22;21803;53.586;10.040;2023-04-23T07:59:37;20.40;45.00
35680;DHT22;21803;53.586;10.040;2023-04-23T08:02:05;20.40;45.00
35680;DHT22;21803;53.586;10.040;2023-04-23T08:04:31;20.40;45.40
35680;DHT22;21803;53.586;10.040;2023-04-23T08:06:56;20.30;45.00
35680;DHT22;21803;53.586;10.040;2023-04-23T08:09:23;20.40;45.00
35680;DHT22;21803;53.586;10.040;2023-04-23T08:11:48;20.40;45.00
35680;DHT22;21803;53.586;10.040;2023-04-23T08:14:14;20.40;45.00
35680;DHT22;21803;53.586;10.040;2023-04-23T08:16:39;20.40;44.90
35680;DHT22;21803;53.586;10.040;2023-04-23T08:19:05;20.40;44.90
35680;DHT22;21803;53.586;10.040;2023-04-23T08:21:31;20.40;44.90
35680;DHT22;21803;53.586;10.040;2023-04-23T08:23:57;20.40;44.90
35680;DHT22;21803;53.586;10.040;2023-04-23T08:26:23;20.50;45.00
35680;DHT22;21803;53.586;10.040;2023-04-23T08:28:48;20.40;44.90
35680;DHT22;21803;53.586;10.040;2023-04-23T08:31:14;20.40;44.90
35680;DHT22;21803;53.586;10.040;2023-04-23T08:33:40;20.40;44.90
35680;DHT22;21803;53.586;10.040;2023-04-23T08:36:06;20.40;44.90
35680;DHT22;21803;53.586;10.040;2023-04-23T08:38:31;20.40;44.80
35680;DHT22;21803;53.586;10.040;2023-04-23T08:40:58;20.50;44.90
35680;DHT22;21803;53.586;10.040;2023-04-23T08:43:31;20.40;44.90
35680;DHT22;21803;53.586;10.040;2023-04-23T08:46:01;20.40;44.80
35680;DHT22;21803;53.586;10.040;2023-04-23T08:48:29;20.40;44.90
35680;DHT22;21803;53.586;10.040;2023-04-23T08:50:55;20.40;44.80
35680;DHT22;21803;53.586;10.040;2023-04-23T08:53:24;20.50;44.90
35680;DHT22;21803;53.586;10.040;2023-04-23T08:55:50;20.40;44.90
35680;DHT22;21803;53.586;10.040;2023-04-23T08:58:17;20.40;44.90
35680;DHT22;21803;53.586;10.040;2023-04-23T09:00:43;20.40;44.90
35680;DHT22;21803;53.586;10.040;2023-04-23T09:03:09;20.40;44.90
35680;DHT22;21803;53.586;10.040;2023-04-23T09:05:35;20.40;44.90
35680;DHT22;21803;53.586;10.040;2023-04-23T09:08:01;20.40;44.90
35680;DHT22;21803;53.586;10.040;2023-04-23T09:10:27;20.50;45.00
35680;DHT22;21803;53.586;10.040;2023-04-23T09:12:53;20.40;45.00
35680;DHT22;21803;53.586;10.040;2023-04-23T09:15:19;20.50;45.00
35680;DHT22;21803;53.586;10.040;2023-04-23T09:17:45;20.50;45.00
35680;DHT22;21803;53.586;10.040;2023-04-23T09:20:12;20.50;45.00
35680;DHT22;21803;53.586;10.040;2023-04-23T09:25:08;20.50;45.00
35680;DHT22;21803;53.586;10.040;2023-04-23T09:27:34;20.40;45.00
35680;DHT22;21803;53.586;10.040;2023-04-23T09:30:04;20.50;45.00
35680;DHT22;21803;53.586;10.040;2023-04-23T09:32:34;20.50;45.00
35680;DHT22;21803;53.586;10.040;2023-04-23T09:35:07;20.40;45.00
35680;DHT22;21803;53.586;10.040;2023-04-23T09:37:34;20.40;45.00
35680;DHT22;21803;53.586;10.040;2023-04-23T09:40:01;20.50;45.00
35680;DHT22;21803;53.586;10.040;2023-04-23T09:42:29;20.50;45.00
35680;DHT22;21803;53.586;10.040;2023-04-23T09:45:06;20.50;45.00
35680;DHT22;21803;53.586;10.040;2023-04-23T09:47:33;20.50;45.00
35680;DHT22;21803;53.586;10.040;2023-04-23T09:49:59;20.50;45.00
35680;DHT22;21803;53.586;10.040;2023-04-23T09:52:25;20.50;45.00
35680;DHT22;21803;53.586;10.040;2023-04-23T09:54:51;20.50;45.00
35680;DHT22;21803;53.586;10.040;2023-04-23T09:57:17;20.50;45.00
35680;DHT22;21803;53.586;10.040;2023-04-23T09:59:42;20.50;45.00
35680;DHT22;21803;53.586;10.040;2023-04-23T10:02:09;20.50;45.00
35680;DHT22;21803;53.586;10.040;2023-04-23T10:04:37;20.40;45.00
35680;DHT22;21803;53.586;10.040;2023-04-23T10:07:05;20.50;45.00
35680;DHT22;21803;53.586;10.040;2023-04-23T10:09:32;20.50;45.00
35680;DHT22;21803;53.586;10.040;2023-04-23T10:12:00;20.50;45.00
35680;DHT22;21803;53.586;10.040;2023-04-23T10:14:29;20.50;45.00
35680;DHT22;21803;53.586;10.040;2023-04-23T10:17:02;20.50;45.00
35680;DHT22;21803;53.586;10.040;2023-04-23T10:19:30;20.50;45.00
35680;DHT22;21803;53.586;10.040;2023-04-23T10:21:58;20.50;45.10
35680;DHT22;21803;53.586;10.040;2023-04-23T10:24:31;20.50;45.00
35680;DHT22;21803;53.586;10.040;2023-04-23T10:27:03;20.50;45.10
35680;DHT22;21803;53.586;10.040;2023-04-23T10:29:31;20.50;45.10
35680;DHT22;21803;53.586;10.040;2023-04-23T10:32:02;20.50;45.10
35680;DHT22;21803;53.586;10.040;2023-04-23T10:34:29;20.50;45.10
35680;DHT22;21803;53.586;10.040;2023-04-23T10:36:56;20.50;45.10
35680;DHT22;21803;53.586;10.040;2023-04-23T10:39:26;20.50;45.10
35680;DHT22;21803;53.586;10.040;2023-04-23T10:41:53;20.50;45.10
35680;DHT22;21803;53.586;10.040;2023-04-23T10:44:19;20.50;45.10
35680;DHT22;21803;53.586;10.040;2023-04-23T10:46:52;20.50;45.10
35680;DHT22;21803;53.586;10.040;2023-04-23T10:49:20;20.50;45.10
35680;DHT22;21803;53.586;10.040;2023-04-23T10:51:46;20.50;45.10
35680;DHT22;21803;53.586;10.040;2023-04-23T10:54:16;20.50;45.70
35680;DHT22;21803;53.586;10.040;2023-04-23T10:56:43;20.50;45.10
35680;DHT22;21803;53.586;10.040;2023-04-23T10:59:19;20.50;45.10
35680;DHT22;21803;53.586;10.040;2023-04-23T11:01:46;20.50;45.10
35680;DHT22;21803;53.586;10.040;2023-04-23T11:04:27;20.50;45.00
35680;DHT22;21803;53.586;10.040;2023-04-23T11:07:19;20.50;45.00
35680;DHT22;21803;53.586;10.040;2023-04-23T11:09:46;20.50;45.00
35680;DHT22;21803;53.586;10.040;2023-04-23T11:12:29;20.40;45.00
35680;DHT22;21803;53.586;10.040;2023-04-23T11:15:08;20.50;45.00
35680;DHT22;21803;53.586;10.040;2023-04-23T11:22:39;20.50;44.90
35680;DHT22;21803;53.586;10.040;2023-04-23T11:25:09;20.40;44.90
35680;DHT22;21803;53.586;10.040;2023-04-23T11:27:43;20.50;44.90
35680;DHT22;21803;53.586;10.040;2023-04-23T11:30:14;20.50;44.90
35680;DHT22;21803;53.586;10.040;2023-04-23T11:32:42;20.40;44.80
35680;DHT22;21803;53.586;10.040;2023-04-23T11:35:09;20.50;44.90
35680;DHT22;21803;53.586;10.040;2023-04-23T11:37:39;20.40;44.80
35680;DHT22;21803;53.586;10.040;2023-04-23T11:40:07;20.50;44.80
35680;DHT22;21803;53.586;10.040;2023-04-23T11:42:53;20.40;44.70
35680;DHT22;21803;53.586;10.040;2023-04-23T11:45:21;21.90;45.50
35680;DHT22;21803;53.586;10.040;2023-04-23T11:47:48;20.50;44.80
35680;DHT22;21803;53.586;10.040;2023-04-23T11:52:48;20.50;44.80
35680;DHT22;21803;53.586;10.040;2023-04-23T11:55:14;20.50;44.80
35680;DHT22;21803;53.586;10.040;2023-04-23T11:57:44;20.40;44.70
35680;DHT22;21803;53.586;10.040;2023-04-23T12:00:21;20.40;44.70
35680;DHT22;21803;53.586;10.040;2023-04-23T12:03:01;20.40;44.70
35680;DHT22;21803;53.586;10.040;2023-04-23T12:07:54;19.60;44.20
35680;DHT22;21803;53.586;10.040;2023-04-23T12:10:30;20.50;44.70
35680;DHT22;21803;53.586;10.040;2023-04-23T12:12:57;20.50;44.70
35680;DHT22;21803;53.586;10.040;2023-04-23T12:15:22;20.40;44.60
35680;DHT22;21803;53.586;10.040;2023-04-23T12:17:49;20.50;44.70
35680;DHT22;21803;53.586;10.040;2023-04-23T12:20:20;20.50;44.70
35680;DHT22;21803;53.586;10.040;2023-04-23T12:22:46;20.50;44.70
35680;DHT22;21803;53.586;10.040;2023-04-23T12:25:11;20.40;44.60
35680;DHT22;21803;53.586;10.040;2023-04-23T12:27:42;20.50;44.70
35680;DHT22;21803;53.586;10.040;2023-04-23T12:30:09;20.50;44.60
35680;DHT22;21803;53.586;10.040;2023-04-23T12:32:36;20.50;44.60
35680;DHT22;21803;53.586;10.040;2023-04-23T12:35:02;20.50;44.60
35680;DHT22;21803;53.586;10.040;2023-04-23T12:37:34;20.50;44.60
35680;DHT22;21803;53.586;10.040;2023-04-23T12:40:00;20.50;44.60
35680;DHT22;21803;53.586;10.040;2023-04-23T12:42:27;20.50;44.60
35680;DHT22;21803;53.586;10.040;2023-04-23T12:44:52;20.90;44.80
35680;DHT22;21803;53.586;10.040;2023-04-23T12:47:20;20.50;44.60
35680;DHT22;21803;53.586;10.040;2023-04-23T12:49:47;20.50;44.60
35680;DHT22;21803;53.586;10.040;2023-04-23T12:52:14;20.50;44.60
35680;DHT22;21803;53.586;10.040;2023-04-23T12:54:40;20.50;44.50
35680;DHT22;21803;53.586;10.040;2023-04-23T12:57:07;20.50;44.50
35680;DHT22;21803;53.586;10.040;2023-04-23T12:59:33;20.50;44.50
35680;DHT22;21803;53.586;10.040;2023-04-23T13:01:59;20.50;44.50
35680;DHT22;21803;53.586;10.040;2023-04-23T13:04:26;20.50;44.50
35680;DHT22;21803;53.586;10.040;2023-04-23T13:06:52;20.40;44.40
35680;DHT22;21803;53.586;10.040;2023-04-23T13:09:19;20.50;44.50
35680;DHT22;21803;53.586;10.040;2023-04-23T13:11:46;20.50;44.50
35680;DHT22;21803;53.586;10.040;2023-04-23T13:14:14;20.50;44.50
35680;DHT22;21803;53.586;10.040;2023-04-23T13:16:41;20.50;44.50
35680;DHT22;21803;53.586;10.040;2023-04-23T13:19:06;20.50;44.50
35680;DHT22;21803;53.586;10.040;2023-04-23T13:21:32;20.40;44.40
35680;DHT22;21803;53.586;10.040;2023-04-23T13:23:57;20.50;44.40
35680;DHT22;21803;53.586;10.040;2023-04-23T13:26:23;20.50;44.50
35680;DHT22;21803;53.586;10.040;2023-04-23T13:28:49;20.50;44.50
35680;DHT22;21803;53.586;10.040;2023-04-23T13:31:14;20.60;45.10
35680;DHT22;21803;53.586;10.040;2023-04-23T13:33:40;20.60;44.50
35680;DHT22;21803;53.586;10.040;2023-04-23T13:36:07;20.50;44.50
35680;DHT22;21803;53.586;10.040;2023-04-23T13:38:33;20.50;44.50
35680;DHT22;21803;53.586;10.040;2023-04-23T13:40:58;20.50;44.50
35680;DHT22;21803;53.586;10.040;2023-04-23T13:43:24;20.50;44.50
35680;DHT22;21803;53.586;10.040;2023-04-23T13:45:51;20.50;45.10
35680;DHT22;21803;53.586;10.040;2023-04-23T13:48:17;20.40;44.50
35680;DHT22;21803;53.586;10.040;2023-04-23T13:50:43;20.50;44.60
35680;DHT22;21803;53.586;10.040;2023-04-23T13:53:09;20.50;44.60
35680;DHT22;21803;53.586;10.040;2023-04-23T13:55:36;20.50;44.60
35680;DHT22;21803;53.586;10.040;2023-04-23T13:58:02;20.50;44.60
35680;DHT22;21803;53.586;10.040;2023-04-23T14:00:28;20.50;44.60
35680;DHT22;21803;53.586;10.040;2023-04-23T14:02:55;20.40;44.60
35680;DHT22;21803;53.586;10.040;2023-04-23T14:05:20;20.40;44.50
35680;DHT22;21803;53.586;10.040;2023-04-23T14:07:46;20.50;44.60
35680;DHT22;21803;53.586;10.040;2023-04-23T14:10:12;20.50;44.60
35680;DHT22;21803;53.586;10.040;2023-04-23T14:12:37;20.50;44.60
35680;DHT22;21803;53.586;10.040;2023-04-23T14:15:07;20.50;44.60
35680;DHT22;21803;53.586;10.040;2023-04-23T14:17:33;20.50;44.70
35680;DHT22;21803;53.586;10.040;2023-04-23T14:19:58;20.50;44.70
35680;DHT22;21803;53.586;10.040;2023-04-23T14:22:24;20.50;44.60
35680;DHT22;21803;53.586;10.040;2023-04-23T14:24:55;20.50;44.60
35680;DHT22;21803;53.586;10.040;2023-04-23T14:27:22;20.50;44.70
35680;DHT22;21803;53.586;10.040;2023-04-23T14:29:56;20.50;44.70
35680;DHT22;21803;53.586;10.040;2023-04-23T14:32:22;20.50;44.70
35680;DHT22;21803;53.586;10.040;2023-04-23T14:34:49;20.50;44.70
35680;DHT22;21803;53.586;10.040;2023-04-23T14:37:15;20.50;44.70
35680;DHT22;21803;53.586;10.040;2023-04-23T14:39:42;20.50;44.70
35680;DHT22;21803;53.586;10.040;2023-04-23T14:42:07;20.50;44.70
35680;DHT22;21803;53.586;10.040;2023-04-23T14:44:33;20.50;44.70
35680;DHT22;21803;53.586;10.040;2023-04-23T14:46:58;20.50;44.70
35680;DHT22;21803;53.586;10.040;2023-04-23T14:49:24;20.50;44.70
35680;DHT22;21803;53.586;10.040;2023-04-23T14:51:51;20.50;44.80
35680;DHT22;21803;53.586;10.040;2023-04-23T14:54:19;20.50;44.70
35680;DHT22;21803;53.586;10.040;2023-04-23T14:56:45;20.50;44.70
35680;DHT22;21803;53.586;10.040;2023-04-23T14:59:11;20.50;44.70
35680;DHT22;21803;53.586;10.040;2023-04-23T15:01:36;20.50;44.80
35680;DHT22;21803;53.586;10.040;2023-04-23T15:04:02;20.50;44.80
35680;DHT22;21803;53.586;10.040;2023-04-23T15:06:28;20.50;44.80
35680;DHT22;21803;53.586;10.040;2023-04-23T15:08:53;20.50;44.80
35680;DHT22;21803;53.586;10.040;2023-04-23T15:11:19;20.50;44.80
35680;DHT22;21803;53.586;10.040;2023-04-23T15:16:29;20.50;44.80
35680;DHT22;21803;53.586;10.040;2023-04-23T15:18:57;20.50;44.80
35680;DHT22;21803;53.586;10.040;2023-04-23T15:21:23;20.60;44.90
35680;DHT22;21803;53.586;10.040;2023-04-23T15:23:48;20.50;44.80
35680;DHT22;21803;53.586;10.040;2023-04-23T15:26:14;20.50;44.90
35680;DHT22;21803;53.586;10.040;2023-04-23T15:28:40;20.50;44.90
35680;DHT22;21803;53.586;10.040;2023-04-23T15:31:06;20.50;44.90
35680;DHT22;21803;53.586;10.040;2023-04-23T15:33:32;20.50;44.90
35680;DHT22;21803;53.586;10.040;2023-04-23T15:35:57;20.50;44.90
35680;DHT22;21803;53.586;10.040;2023-04-23T15:38:23;20.60;45.00
35680;DHT22;21803;53.586;10.040;2023-04-23T15:40:48;20.60;45.00
35680;DHT22;21803;53.586;10.040;2023-04-23T15:43:14;20.50;45.00
35680;DHT22;21803;53.586;10.040;2023-04-23T15:45:40;20.50;45.00
35680;DHT22;21803;53.586;10.040;2023-04-23T15:48:07;20.50;45.00
35680;DHT22;21803;53.586;10.040;2023-04-23T15:50:34;20.50;45.00
35680;DHT22;21803;53.586;10.040;2023-04-23T15:53:00;20.50;45.00
35680;DHT22;21803;53.586;10.040;2023-04-23T15:55:27;20.60;45.10
35680;DHT22;21803;53.586;10.040;2023-04-23T15:57:52;20.50;45.10
35680;DHT22;21803;53.586;10.040;2023-04-23T16:00:18;20.50;45.10
35680;DHT22;21803;53.586;10.040;2023-04-23T16:02:44;20.50;45.10
35680;DHT22;21803;53.586;10.040;2023-04-23T16:05:10;20.60;45.20
35680;DHT22;21803;53.586;10.040;2023-04-23T16:07:38;20.50;45.10
35680;DHT22;21803;53.586;10.040;2023-04-23T16:10:05;20.50;45.20
35680;DHT22;21803;53.586;10.040;2023-04-23T16:12:31;20.50;45.20
35680;DHT22;21803;53.586;10.040;2023-04-23T16:14:57;20.50;45.20
35680;DHT22;21803;53.586;10.040;2023-04-23T16:17:23;20.50;45.20
35680;DHT22;21803;53.586;10.040;2023-04-23T16:19:49;20.50;45.20
35680;DHT22;21803;53.586;10.040;2023-04-23T16:22:14;20.50;45.80
35680;DHT22;21803;53.586;10.040;2023-04-23T16:24:41;20.50;45.20
35680;DHT22;21803;53.586;10.040;2023-04-23T16:27:07;20.50;45.30
35680;DHT22;21803;53.586;10.040;2023-04-23T16:29:36;20.50;45.90
35680;DHT22;21803;53.586;10.040;2023-04-23T16:32:02;20.50;45.30
35680;DHT22;21803;53.586;10.040;2023-04-23T16:34:27;20.50;45.30
35680;DHT22;21803;53.586;10.040;2023-04-23T16:36:53;20.50;45.30
35680;DHT22;21803;53.586;10.040;2023-04-23T16:39:18;20.40;45.30
35680;DHT22;21803;53.586;10.040;2023-04-23T16:41:44;20.50;45.30
35680;DHT22;21803;53.586;10.040;2023-04-23T16:44:09;20.50;45.30
35680;DHT22;21803;53.586;10.040;2023-04-23T16:46:35;20.50;45.30
35680;DHT22;21803;53.586;10.040;2023-04-23T16:49:01;20.50;45.30
35680;DHT22;21803;53.586;10.040;2023-04-23T16:51:27;20.50;45.30
35680;DHT22;21803;53.586;10.040;2023-04-23T16:53:54;20.50;45.40
35680;DHT22;21803;53.586;10.040;2023-04-23T16:56:20;20.50;45.40
35680;DHT22;21803;53.586;10.040;2023-04-23T16:58:46;20.50;45.40
35680;DHT22;21803;53.586;10.040;2023-04-23T17:01:11;20.50;45.40
35680;DHT22;21803;53.586;10.040;2023-04-23T17:03:37;20.50;45.40
35680;DHT22;21803;53.586;10.040;2023-04-23T17:06:19;20.50;45.40
35680;DHT22;21803;53.586;10.040;2023-04-23T17:08:44;20.50;45.40
35680;DHT22;21803;53.586;10.040;2023-04-23T17:11:10;20.50;45.40
35680;DHT22;21803;53.586;10.040;2023-04-23T17:13:36;20.50;45.40
35680;DHT22;21803;53.586;10.040;2023-04-23T17:16:01;20.50;45.40
35680;DHT22;21803;53.586;10.040;2023-04-23T17:18:27;20.40;45.30
35680;DHT22;21803;53.586;10.040;2023-04-23T17:20:53;20.50;45.30
35680;DHT22;21803;53.586;10.040;2023-04-23T17:23:19;20.50;45.40
35680;DHT22;21803;53.586;10.040;2023-04-23T17:25:44;20.50;45.40
35680;DHT22;21803;53.586;10.040;2023-04-23T17:28:11;20.50;45.30
35680;DHT22;21803;53.586;10.040;2023-04-23T17:30:36;19.90;45.10
35680;DHT22;21803;53.586;10.040;2023-04-23T17:33:02;20.50;45.40
35680;DHT22;21803;53.586;10.040;2023-04-23T17:35:28;20.50;45.40
35680;DHT22;21803;53.586;10.040;2023-04-23T17:37:53;20.50;45.40
35680;DHT22;21803;53.586;10.040;2023-04-23T17:40:19;20.50;45.40
35680;DHT22;21803;53.586;10.040;2023-04-23T17:42:44;20.50;45.40
35680;DHT22;21803;53.586;10.040;2023-04-23T17:45:10;20.50;45.40
35680;DHT22;21803;53.586;10.040;2023-04-23T17:47:36;20.50;45.40
35680;DHT22;21803;53.586;10.040;2023-04-23T17:50:02;20.50;45.40
35680;DHT22;21803;53.586;10.040;2023-04-23T17:52:28;20.50;45.40
35680;DHT22;21803;53.586;10.040;2023-04-23T17:54:54;20.50;45.40
35680;DHT22;21803;53.586;10.040;2023-04-23T17:57:21;20.50;45.40
35680;DHT22;21803;53.586;10.040;2023-04-23T17:59:46;20.50;45.40
35680;DHT22;21803;53.586;10.040;2023-04-23T18:02:12;20.50;45.40
35680;DHT22;21803;53.586;10.040;2023-04-23T18:04:37;20.40;45.40
35680;DHT22;21803;53.586;10.040;2023-04-23T18:07:03;20.50;45.40
35680;DHT22;21803;53.586;10.040;2023-04-23T18:09:28;20.50;45.40
35680;DHT22;21803;53.586;10.040;2023-04-23T18:11:54;20.50;45.40
35680;DHT22;21803;53.586;10.040;2023-04-23T18:14:21;20.40;45.40
35680;DHT22;21803;53.586;10.040;2023-04-23T18:16:47;20.50;45.40
35680;DHT22;21803;53.586;10.040;2023-04-23T18:19:12;20.50;45.40
35680;DHT22;21803;53.586;10.040;2023-04-23T18:21:38;20.50;45.40
35680;DHT22;21803;53.586;10.040;2023-04-23T18:24:04;20.50;45.50
35680;DHT22;21803;53.586;10.040;2023-04-23T18:26:30;20.50;45.50
35680;DHT22;21803;53.586;10.040;2023-04-23T18:28:55;20.50;45.50
35680;DHT22;21803;53.586;10.040;2023-04-23T18:31:21;20.50;45.50
35680;DHT22;21803;53.586;10.040;2023-04-23T18:33:52;20.50;45.50
35680;DHT22;21803;53.586;10.040;2023-04-23T18:36:22;20.50;45.50
35680;DHT22;21803;53.586;10.040;2023-04-23T18:38:48;20.50;45.50
35680;DHT22;21803;53.586;10.040;2023-04-23T18:41:14;20.50;45.50
35680;DHT22;21803;53.586;10.040;2023-04-23T18:43:40;20.50;45.50
35680;DHT22;21803;53.586;10.040;2023-04-23T18:46:05;20.50;45.50
35680;DHT22;21803;53.586;10.040;2023-04-23T18:51:19;20.50;45.50
35680;DHT22;21803;53.586;10.040;2023-04-23T18:53:48;20.50;45.50
35680;DHT22;21803;53.586;10.040;2023-04-23T18:56:14;20.50;45.60
35680;DHT22;21803;53.586;10.040;2023-04-23T18:58:40;20.40;45.50
35680;DHT22;21803;53.586;10.040;2023-04-23T19:01:05;20.50;45.60
35680;DHT22;21803;53.586;10.040;2023-04-23T19:03:31;20.50;45.60
35680;DHT22;21803;53.586;10.040;2023-04-23T19:05:57;20.50;45.60
35680;DHT22;21803;53.586;10.040;2023-04-23T19:08:22;20.50;45.60
35680;DHT22;21803;53.586;10.040;2023-04-23T19:10:53;20.50;45.60
35680;DHT22;21803;53.586;10.040;2023-04-23T19:13:19;20.50;45.60
35680;DHT22;21803;53.586;10.040;2023-04-23T19:15:46;20.50;45.60
35680;DHT22;21803;53.586;10.040;2023-04-23T19:18:12;20.50;45.60
35680;DHT22;21803;53.586;10.040;2023-04-23T19:20:37;20.50;45.60
35680;DHT22;21803;53.586;10.040;2023-04-23T19:23:03;20.50;45.60
35680;DHT22;21803;53.586;10.040;2023-04-23T19:25:29;20.50;45.60
35680;DHT22;21803;53.586;10.040;2023-04-23T19:27:54;19.50;45.10
35680;DHT22;21803;53.586;10.040;2023-04-23T19:30:20;20.50;45.60